Time;durP1;ratioP1;P1;durP2;ratioP2;P2;SDS_P1;SDS_P2;PMS_P1;PMS_P2;Temp;Humidity;BMP_temperature;BMP_pressure;BME280_temperature;BME280_humidity;BME280_pressure;Samples;Min_cycle;Max_cycle;Signal;HPM_P1;HPM_P2
2021/12/28 00:02:59;;;;;;;0.20;0.20;;;;;;;12.15;100.00;96864.00;6429022;22;20024;-47
2021/12/28 00:06:05;;;;;;;0.57;0.52;;;;;;;12.21;100.00;96871.47;6429636;22;20028;-47
2021/12/28 00:09:09;;;;;;;0.10;0.10;;;;;;;12.18;100.00;96885.22;6429325;22;20029;-48
2021/12/28 00:12:12;;;;;;;1.58;0.30;;;;;;;12.12;100.00;96890.25;6429353;22;20028;-47
2021/12/28 00:15:31;;;;;;;3.40;0.85;;;;;;;12.25;100.00;96882.97;6429568;22;20028;-47
2021/12/28 00:18:35;;;;;;;6.43;1.13;;;;;;;12.12;100.00;96876.31;6429168;22;20024;-47
2021/12/28 00:21:38;;;;;;;0.73;0.47;;;;;;;12.22;100.00;96878.50;6429827;22;20028;-47
2021/12/28 00:24:43;;;;;;;1.70;0.60;;;;;;;12.43;100.00;96876.28;6430023;22;20036;-48
2021/12/28 00:27:46;;;;;;;3.60;1.00;;;;;;;12.51;100.00;96882.59;6429679;22;20461;-47
2021/12/28 00:30:52;;;;;;;0.65;0.65;;;;;;;12.50;100.00;96873.47;6429793;22;20032;-47
2021/12/28 00:33:58;;;;;;;1.10;0.85;;;;;;;12.49;100.00;96868.44;6429160;22;20029;-47
2021/12/28 00:37:01;;;;;;;2.05;0.68;;;;;;;12.59;100.00;96869.34;6429519;22;20029;-47
2021/12/28 00:40:05;;;;;;;1.55;1.10;;;;;;;12.57;100.00;96858.00;6430517;22;20024;-47
2021/12/28 00:43:09;;;;;;;0.40;0.38;;;;;;;12.57;100.00;96841.25;6431241;22;20106;-47
2021/12/28 00:46:12;;;;;;;0.88;0.60;;;;;;;12.59;100.00;96847.03;6430940;22;20032;-47
2021/12/28 00:49:16;;;;;;;11.55;0.70;;;;;;;12.50;100.00;96834.38;6430494;22;20036;-47
2021/12/28 00:52:19;;;;;;;3.42;0.88;;;;;;;12.53;100.00;96838.09;6429750;22;20079;-48
2021/12/28 00:55:24;;;;;;;0.50;0.40;;;;;;;12.42;100.00;96841.28;6431142;22;20035;-47
2021/12/28 00:58:28;;;;;;;0.30;0.30;;;;;;;12.15;100.00;96864.00;6431962;22;20021;-47
2021/12/28 01:01:32;;;;;;;4.07;0.90;;;;;;;12.38;100.00;96868.84;6431619;22;20353;-47
2021/12/28 01:04:35;;;;;;;3.63;0.80;;;;;;;12.41;100.00;96878.88;6431942;22;20021;-47
2021/12/28 01:07:39;;;;;;;1.33;0.25;;;;;;;12.43;100.00;96876.28;6431394;22;20037;-47
2021/12/28 01:10:50;;;;;;;5.97;0.80;;;;;;;12.47;100.00;96885.75;6431526;22;20032;-47
2021/12/28 01:13:54;;;;;;;0.45;0.43;;;;;;;12.49;100.00;96890.78;6430605;22;20024;-48
2021/12/28 01:16:59;;;;;;;0.45;0.35;;;;;;;12.68;100.00;96891.88;6431177;22;20385;-47
2021/12/28 01:20:05;;;;;;;6.70;0.80;;;;;;;12.75;100.00;96901.53;6430816;22;20471;-47
2021/12/28 01:23:09;;;;;;;0.40;0.25;;;;;;;12.81;100.00;96908.41;6431022;22;20025;-47
2021/12/28 01:26:13;;;;;;;0.55;0.28;;;;;;;12.78;100.00;96912.31;6411476;22;20353;-47
2021/12/28 01:29:16;;;;;;;2.40;0.40;;;;;;;12.75;100.00;96901.53;6431026;22;20029;-47
2021/12/28 01:32:20;;;;;;;0.38;0.32;;;;;;;12.77;100.00;96901.72;6410203;22;20070;-47
2021/12/28 01:35:23;;;;;;;0.57;0.35;;;;;;;12.76;100.00;96884.19;6431601;22;20029;-48
2021/12/28 01:38:27;;;;;;;1.23;0.90;;;;;;;12.76;100.00;96880.66;6432823;22;20347;-48
2021/12/28 01:41:31;;;;;;;10.05;0.80;;;;;;;12.80;100.00;96878.22;6430969;22;20025;-47
2021/12/28 01:44:36;;;;;;;7.55;0.95;;;;;;;12.71;100.00;96878.84;6432445;22;20028;-48
2021/12/28 01:47:40;;;;;;;6.30;1.25;;;;;;;12.65;100.00;96892.22;6431623;22;20111;-47
2021/12/28 01:50:44;;;;;;;2.03;0.80;;;;;;;12.63;100.00;96906.00;6431238;22;20464;-47
2021/12/28 01:53:53;;;;;;;2.45;1.55;;;;;;;12.62;100.00;96908.06;6431273;22;20029;-48
2021/12/28 01:56:56;;;;;;;8.40;1.13;;;;;;;12.68;100.00;96896.69;6431534;22;20512;-47
2021/12/28 01:59:59;;;;;;;10.13;1.00;;;;;;;12.76;100.00;96906.53;6431231;22;20024;-47
2021/12/28 02:03:12;;;;;;;1.83;0.68;;;;;;;12.85;100.00;96894.78;6431386;22;20024;-47
2021/12/28 02:06:16;;;;;;;3.55;1.38;;;;;;;12.85;100.00;96894.03;6431329;22;20029;-47
2021/12/28 02:09:19;;;;;;;4.30;0.82;;;;;;;12.84;100.00;96898.88;6411352;22;20029;-48
2021/12/28 02:12:23;;;;;;;1.27;0.50;;;;;;;12.72;100.00;96897.06;6432488;22;20024;-47
2021/12/28 02:15:27;;;;;;;11.45;2.42;;;;;;;12.79;100.00;96901.88;6431672;22;20021;-47
2021/12/28 02:18:33;;;;;;;5.93;0.32;;;;;;;12.78;100.00;96911.56;6432072;22;20024;-47
2021/12/28 02:21:37;;;;;;;3.42;1.20;;;;;;;12.89;100.00;96902.78;6431457;22;20039;-47
2021/12/28 02:24:40;;;;;;;1.70;0.73;;;;;;;12.96;100.00;96899.22;6431541;22;20025;-47
2021/12/28 02:27:45;;;;;;;5.20;1.42;;;;;;;12.99;100.00;96898.13;6430819;22;20028;-48
2021/12/28 02:30:51;;;;;;;3.08;0.88;;;;;;;13.00;100.00;96907.22;6431412;22;20063;-47
2021/12/28 02:33:55;;;;;;;6.65;2.17;;;;;;;12.94;100.00;96899.06;6430689;22;20342;-48
2021/12/28 02:36:58;;;;;;;15.18;2.55;;;;;;;12.91;100.00;96886.94;6431253;22;20071;-48
2021/12/28 02:40:05;;;;;;;0.80;0.40;;;;;;;12.86;100.00;96868.34;6431100;22;20024;-48
2021/12/28 02:43:11;;;;;;;0.90;0.57;;;;;;;12.78;100.00;96861.28;6429913;22;20020;-48
2021/12/28 02:46:16;;;;;;;0.57;0.15;;;;;;;12.87;100.00;96846.75;6429307;22;20028;-48
2021/12/28 02:49:20;;;;;;;4.75;1.27;;;;;;;12.90;100.00;96845.63;6429121;22;20024;-47
2021/12/28 02:52:23;;;;;;;0.75;0.70;;;;;;;12.89;100.00;96860.88;6430446;22;20020;-48
2021/12/28 02:55:30;;;;;;;2.63;0.98;;;;;;;12.90;100.00;96856.81;6431171;22;20028;-48
2021/12/28 02:58:38;;;;;;;0.57;0.40;;;;;;;12.80;100.00;96862.22;6431009;22;20024;-48
2021/12/28 03:01:41;;;;;;;0.85;0.43;;;;;;;12.73;100.00;96851.09;6430764;22;20024;-48
2021/12/28 03:04:45;;;;;;;3.90;0.95;;;;;;;12.67;100.00;96844.94;6430178;22;20075;-48
2021/12/28 03:07:49;;;;;;;1.17;0.30;;;;;;;12.64;100.00;96846.09;6429093;22;20028;-48
2021/12/28 03:10:53;;;;;;;1.33;0.80;;;;;;;12.71;100.00;96856.50;6428944;22;20039;-47
2021/12/28 03:13:59;;;;;;;5.13;0.77;;;;;;;12.62;100.00;96843.88;6429400;22;20025;-47
2021/12/28 03:17:04;;;;;;;2.40;0.77;;;;;;;12.66;100.00;96849.06;6429329;22;20032;-47
2021/12/28 03:20:12;;;;;;;6.05;1.30;;;;;;;12.61;100.00;96834.00;6428825;22;20044;-47
2021/12/28 03:23:21;;;;;;;1.45;0.77;;;;;;;12.59;100.00;96833.81;6429054;22;20029;-47
2021/12/28 03:26:25;;;;;;;1.00;0.90;;;;;;;12.59;100.00;96821.91;6427678;22;20024;-48
2021/12/28 03:29:29;;;;;;;12.15;1.30;;;;;;;12.51;100.00;96805.19;6430473;22;20353;-48
2021/12/28 03:32:34;;;;;;;3.08;1.98;;;;;;;12.52;100.00;96797.53;6429846;22;20021;-48
2021/12/28 03:35:38;;;;;;;1.80;0.57;;;;;;;12.42;100.00;96807.81;6429936;22;20028;-48
2021/12/28 03:38:43;;;;;;;0.68;0.40;;;;;;;12.39;100.00;96803.34;6429776;22;20024;-48
2021/12/28 03:41:47;;;;;;;1.80;0.32;;;;;;;12.46;100.00;96794.19;6429394;22;20029;-48
2021/12/28 03:44:50;;;;;;;1.10;0.50;;;;;;;12.41;100.00;96800.75;6429200;22;20032;-48
2021/12/28 03:47:55;;;;;;;3.03;0.35;;;;;;;12.40;100.00;96800.00;6428839;22;20025;-48
2021/12/28 03:50:58;;;;;;;3.95;0.73;;;;;;;12.41;100.00;96803.53;6429658;22;20025;-48
2021/12/28 03:54:02;;;;;;;3.30;0.20;;;;;;;12.37;100.00;96806.69;6429633;22;20464;-47
2021/12/28 03:57:06;;;;;;;1.52;0.80;;;;;;;12.43;100.00;96798.13;6429228;22;20066;-47
2021/12/28 04:00:13;;;;;;;0.10;0.08;;;;;;;12.50;100.00;96791.75;6429488;22;20029;-48
2021/12/28 04:03:17;;;;;;;1.15;0.90;;;;;;;12.52;100.00;96789.16;6429117;22;20048;-47
2021/12/28 04:06:21;;;;;;;0.43;0.30;;;;;;;12.51;100.00;96777.28;6429283;22;20032;-48
2021/12/28 04:09:46;;;;;;;1.55;0.50;;;;;;;12.55;100.00;96776.88;6430887;22;20078;-48
2021/12/28 04:12:47;;;;;;;1.55;0.73;;;;;;;12.56;100.00;96778.38;6429281;22;20342;-48
2021/12/28 04:15:51;;;;;;;0.17;0.17;;;;;;;12.63;100.00;96772.00;6431816;22;20484;-48
2021/12/28 04:18:54;;;;;;;1.13;0.57;;;;;;;12.65;100.00;96764.53;6431613;22;20013;-48
2021/12/28 04:21:57;;;;;;;0.22;0.20;;;;;;;12.63;100.00;96760.84;6430961;22;20150;-48
2021/12/28 04:25:01;;;;;;;1.63;0.28;;;;;;;12.60;100.00;96751.56;6431560;22;20032;-48
2021/12/28 04:28:05;;;;;;;4.78;0.30;;;;;;;12.40;100.00;96737.84;6431303;22;20040;-48
2021/12/28 04:31:09;;;;;;;1.00;0.40;;;;;;;12.53;100.00;96732.03;6431317;22;20024;-48
2021/12/28 04:34:12;;;;;;;0.43;0.30;;;;;;;12.62;100.00;96728.66;6431382;22;20472;-47
2021/12/28 04:37:16;;;;;;;3.60;0.88;;;;;;;12.61;100.00;96730.69;6431232;22;20040;-47
2021/12/28 04:40:19;;;;;;;1.00;0.47;;;;;;;12.47;100.00;96723.88;6430638;22;20342;-48
2021/12/28 04:43:23;;;;;;;4.90;0.47;;;;;;;12.38;100.00;96723.72;6433430;22;20349;-48
2021/12/28 04:46:30;;;;;;;1.65;0.47;;;;;;;12.58;100.00;96722.72;6432979;22;20021;-48
2021/12/28 04:49:34;;;;;;;10.07;0.95;;;;;;;12.60;100.00;96726.44;6432055;22;20037;-48
2021/12/28 04:52:39;;;;;;;3.40;0.45;;;;;;;12.60;100.00;96722.91;6431643;22;20028;-48
2021/12/28 04:55:46;;;;;;;0.70;0.45;;;;;;;12.59;100.00;96721.41;6431226;22;20028;-48
2021/12/28 04:58:49;;;;;;;8.32;0.75;;;;;;;12.64;100.00;96728.81;6430957;22;20029;-48
2021/12/28 05:01:53;;;;;;;1.83;0.38;;;;;;;12.64;100.00;96723.25;6431253;22;20024;-47
2021/12/28 05:04:56;;;;;;;6.45;0.65;;;;;;;12.57;100.00;96721.22;6431538;22;20025;-47
2021/12/28 05:07:59;;;;;;;0.25;0.25;;;;;;;12.33;100.00;96719.81;6430588;22;20033;-48
2021/12/28 05:11:03;;;;;;;1.00;0.93;;;;;;;12.49;100.00;96712.91;6430877;22;20345;-48
2021/12/28 05:14:08;;;;;;;0.15;0.15;;;;;;;12.58;100.00;96706.69;6430722;22;20503;-47
2021/12/28 05:17:12;;;;;;;0.95;0.52;;;;;;;12.64;100.00;96700.91;6431083;22;20028;-48
2021/12/28 05:20:15;;;;;;;4.22;0.47;;;;;;;12.39;100.00;96700.09;6430246;22;20040;-47
2021/12/28 05:23:18;;;;;;;2.85;0.25;;;;;;;12.33;100.00;96700.28;6411972;22;20044;-48
2021/12/28 05:26:24;;;;;;;0.20;0.20;;;;;;;12.45;100.00;96700.63;6430368;22;20040;-47
2021/12/28 05:29:28;;;;;;;1.13;0.57;;;;;;;12.51;100.00;96698.38;6431860;22;20067;-47
2021/12/28 05:32:31;;;;;;;0.10;0.10;;;;;;;12.53;100.00;96693.72;6432896;22;20040;-48
2021/12/28 05:35:35;;;;;;;0.47;0.35;;;;;;;12.45;100.00;96689.47;6432153;22;20048;-49
2021/12/28 05:38:39;;;;;;;1.08;0.75;;;;;;;12.29;100.00;96690.81;6431712;22;20465;-48
2021/12/28 05:41:42;;;;;;;2.58;0.30;;;;;;;12.37;100.00;96694.31;6431470;22;20028;-49
2021/12/28 05:44:46;;;;;;;0.63;0.63;;;;;;;12.34;100.00;96695.47;6431324;22;20028;-49
2021/12/28 05:47:49;;;;;;;0.30;0.10;;;;;;;12.33;100.00;96682.81;6431161;22;20024;-49
2021/12/28 05:50:53;;;;;;;0.88;0.38;;;;;;;12.44;100.00;96682.38;6431802;22;20024;-49
2021/12/28 05:53:56;;;;;;;0.47;0.30;;;;;;;12.46;100.00;96679.78;6431882;22;20029;-49
2021/12/28 05:57:00;;;;;;;0.10;0.10;;;;;;;12.51;100.00;96664.88;6430731;22;20472;-49
2021/12/28 06:00:06;;;;;;;0.40;0.40;;;;;;;12.45;100.00;96662.28;6431260;22;20342;-49
2021/12/28 06:03:10;;;;;;;0.95;0.10;;;;;;;12.42;100.00;96657.09;6431377;22;20085;-49
2021/12/28 06:06:13;;;;;;;1.20;0.80;;;;;;;12.55;100.00;96649.22;6430312;22;20033;-47
2021/12/28 06:09:17;;;;;;;0.10;0.00;;;;;;;12.59;100.00;96648.81;6430833;22;20029;-49
2021/12/28 06:12:20;;;;;;;0.52;0.52;;;;;;;12.63;100.00;96638.75;6430438;22;20024;-49
2021/12/28 06:15:24;;;;;;;3.60;0.28;;;;;;;12.52;100.00;96638.44;6431383;22;20045;-49
2021/12/28 06:18:27;;;;;;;0.22;0.22;;;;;;;12.51;100.00;96631.38;6432075;22;20040;-48
2021/12/28 06:21:34;;;;;;;0.10;0.00;;;;;;;12.63;100.00;96629.63;6430849;22;20476;-49
2021/12/28 06:24:37;;;;;;;0.10;0.00;;;;;;;12.63;100.00;96621.25;6431217;22;20044;-48
2021/12/28 06:27:41;;;;;;;0.10;0.10;;;;;;;12.58;100.00;96619.44;6431116;22;20338;-49
2021/12/28 06:30:44;;;;;;;0.20;0.20;;;;;;;12.57;100.00;96620.72;6430483;22;20032;-49
2021/12/28 06:33:49;;;;;;;0.20;0.20;;;;;;;12.51;100.00;96609.78;6430841;22;20025;-49
2021/12/28 06:36:52;;;;;;;0.00;0.00;;;;;;;12.66;100.00;96603.38;6430905;22;20024;-49
2021/12/28 06:39:56;;;;;;;0.10;0.10;;;;;;;12.71;100.00;96600.34;6430519;22;20020;-49
2021/12/28 06:43:00;;;;;;;7.03;0.40;;;;;;;12.76;100.00;96601.44;6430679;22;20024;-48
2021/12/28 06:46:03;;;;;;;0.20;0.10;;;;;;;12.79;100.00;96597.50;6430911;22;20020;-48
2021/12/28 06:49:06;;;;;;;1.00;0.32;;;;;;;12.82;100.00;96591.50;6431028;22;20025;-48
2021/12/28 06:52:09;;;;;;;0.38;0.30;;;;;;;12.85;100.00;96587.59;6430694;22;20020;-48
2021/12/28 06:55:13;;;;;;;0.00;0.00;;;;;;;12.86;100.00;96580.69;6431257;22;20024;-48
2021/12/28 06:58:16;;;;;;;0.03;0.00;;;;;;;12.88;100.00;96588.50;6430183;22;20375;-48
2021/12/28 07:01:19;;;;;;;0.52;0.52;;;;;;;12.78;100.00;96580.00;6429880;22;20471;-47
2021/12/28 07:04:23;;;;;;;0.17;0.10;;;;;;;12.89;100.00;96581.59;6432783;22;20020;-47
2021/12/28 07:07:26;;;;;;;0.10;0.08;;;;;;;12.88;100.00;96583.69;6431642;22;20024;-47
2021/12/28 07:10:30;;;;;;;0.10;0.00;;;;;;;12.56;100.00;96577.41;6430212;22;20030;-47
2021/12/28 07:13:33;;;;;;;0.32;0.25;;;;;;;12.60;100.00;96578.47;6430311;22;20025;-47
2021/12/28 07:16:37;;;;;;;0.10;0.00;;;;;;;12.54;100.00;96580.00;6430057;22;20024;-47
2021/12/28 07:19:41;;;;;;;0.20;0.20;;;;;;;12.44;100.00;96573.53;6430159;22;20337;-47
2021/12/28 07:22:44;;;;;;;0.00;0.00;;;;;;;12.74;100.00;96576.13;6430182;22;20044;-47
2021/12/28 07:25:49;;;;;;;1.30;0.70;;;;;;;12.73;100.00;96566.28;6429900;22;20472;-47
2021/12/28 07:28:53;;;;;;;0.15;0.10;;;;;;;12.84;100.00;96572.13;6429843;22;20032;-48
2021/12/28 07:31:56;;;;;;;0.32;0.10;;;;;;;13.01;100.00;96568.66;6429440;22;20029;-48
2021/12/28 07:35:00;;;;;;;0.17;0.08;;;;;;;13.06;100.00;96573.28;6429303;22;20024;-48
2021/12/28 07:38:03;;;;;;;0.10;0.00;;;;;;;13.09;100.00;96574.94;6429453;22;20044;-47
2021/12/28 07:41:06;;;;;;;0.70;0.70;;;;;;;12.95;100.00;96577.25;6429997;22;20338;-47
2021/12/28 07:44:09;;;;;;;2.72;0.45;;;;;;;12.91;100.00;96581.78;6429251;22;20024;-47
2021/12/28 07:47:15;;;;;;;0.30;0.30;;;;;;;12.97;100.00;96581.56;6348869;22;20351;-47
2021/12/28 07:50:19;;;;;;;0.63;0.40;;;;;;;12.91;100.00;96578.97;6431424;22;20464;-47
2021/12/28 07:53:23;;;;;;;0.10;0.00;;;;;;;12.86;100.00;96577.16;6431785;22;20067;-47
2021/12/28 07:56:26;;;;;;;0.30;0.30;;;;;;;12.71;100.00;96582.88;6432424;22;20029;-48
2021/12/28 07:59:30;;;;;;;0.10;0.10;;;;;;;12.64;100.00;96603.19;6433837;22;20024;-48
2021/12/28 08:02:34;;;;;;;0.10;0.00;;;;;;;12.66;100.00;96614.53;6433247;22;20032;-47
2021/12/28 08:05:37;;;;;;;0.10;0.10;;;;;;;12.50;100.00;96608.31;6432458;22;20498;-47
2021/12/28 08:08:41;;;;;;;0.10;0.10;;;;;;;12.42;100.00;96612.44;6432362;22;20070;-47
2021/12/28 08:11:45;;;;;;;0.13;0.05;;;;;;;12.19;100.00;96612.56;6432138;22;20067;-47
2021/12/28 08:14:48;;;;;;;0.10;0.08;;;;;;;12.19;100.00;96602.13;6432192;22;20021;-47
2021/12/28 08:17:52;;;;;;;1.02;0.13;;;;;;;12.03;100.00;96623.06;6431569;22;20024;-47
2021/12/28 08:20:55;;;;;;;0.10;0.10;;;;;;;11.91;100.00;96627.53;6431943;22;20024;-47
2021/12/28 08:23:59;;;;;;;7.03;0.85;;;;;;;11.91;100.00;96635.91;6431837;22;20480;-47
2021/12/28 08:27:03;;;;;;;1.83;0.60;;;;;;;11.84;100.00;96639.47;6430556;22;20464;-48
2021/12/28 08:30:08;;;;;;;0.30;0.10;;;;;;;11.63;100.00;96652.84;6429561;22;20032;-47
2021/12/28 08:33:11;;;;;;;0.20;0.20;;;;;;;11.54;100.00;96650.66;6430158;22;20024;-46
2021/12/28 08:36:15;;;;;;;0.10;0.10;;;;;;;11.38;100.00;96668.69;6430656;22;20029;-46
2021/12/28 08:39:18;;;;;;;0.40;0.30;;;;;;;11.30;100.00;96665.19;6429776;22;20029;-46
2021/12/28 08:42:22;;;;;;;2.72;1.42;;;;;;;11.31;100.00;96667.41;6429327;22;20452;-47
2021/12/28 08:45:26;;;;;;;0.10;0.10;;;;;;;11.45;100.00;96670.75;6430907;22;20643;-46
2021/12/28 08:48:29;;;;;;;0.10;0.10;;;;;;;11.52;100.00;96674.81;6430493;22;20028;-46
2021/12/28 08:51:33;;;;;;;1.58;0.63;;;;;;;11.41;100.00;96687.09;6430875;22;20024;-46
2021/12/28 08:54:37;;;;;;;0.10;0.00;;;;;;;11.44;100.00;96685.97;6432936;22;20040;-46
2021/12/28 08:57:40;;;;;;;0.10;0.05;;;;;;;11.43;100.00;96678.91;6432007;22;20523;-46
2021/12/28 09:00:44;;;;;;;11.30;0.47;;;;;;;11.46;100.00;96696.56;6431163;22;20025;-47
2021/12/28 09:16:19;;;;;;;0.77;0.47;;;;;;;11.57;100.00;96721.25;6145328;22;1612906;-52
2021/12/28 09:19:24;;;;;;;0.10;0.00;;;;;;;11.64;100.00;96731.66;6191262;22;20524;-52
2021/12/28 09:22:27;;;;;;;0.28;0.28;;;;;;;11.69;100.00;96739.88;6221753;22;20027;-52
2021/12/28 09:25:31;;;;;;;1.38;0.40;;;;;;;11.68;100.00;96741.16;6283130;22;20035;-52
2021/12/28 09:28:34;;;;;;;0.93;0.73;;;;;;;11.77;100.00;96746.16;6265526;22;20065;-51
2021/12/28 09:31:38;;;;;;;0.30;0.22;;;;;;;11.77;100.00;96751.75;6264900;22;20455;-51
2021/12/28 09:34:44;;;;;;;0.95;0.22;;;;;;;11.84;100.00;96764.19;6271373;22;20077;-52
2021/12/28 09:37:47;;;;;;;7.47;0.50;;;;;;;11.83;100.00;96759.91;6215105;22;20031;-51
2021/12/28 09:40:51;;;;;;;0.35;0.30;;;;;;;11.94;100.00;96771.44;6220135;22;20022;-51
2021/12/28 09:43:55;;;;;;;0.30;0.20;;;;;;;12.05;100.00;96771.06;6209011;22;20050;-51
2021/12/28 09:47:01;;;;;;;3.95;0.38;;;;;;;12.04;100.00;96777.91;6221334;22;20471;-51
2021/12/28 09:50:05;;;;;;;0.25;0.15;;;;;;;12.06;100.00;96789.25;6206381;22;20027;-51
2021/12/28 09:53:14;;;;;;;0.85;0.55;;;;;;;12.02;100.00;96788.91;6234067;22;20039;-51
2021/12/28 09:56:17;;;;;;;4.85;0.50;;;;;;;12.00;100.00;96797.06;6183626;23;20043;-53
2021/12/28 09:59:22;;;;;;;1.67;0.35;;;;;;;11.98;100.00;96804.50;6187368;23;20032;-52
2021/12/28 10:02:26;;;;;;;0.25;0.25;;;;;;;11.99;100.00;96806.75;6188139;23;20385;-53
2021/12/28 10:05:30;;;;;;;3.85;0.30;;;;;;;11.98;100.00;96816.41;6188189;23;20036;-53
2021/12/28 10:08:33;;;;;;;0.20;0.10;;;;;;;12.05;100.00;96832.41;6188125;23;20032;-53
2021/12/28 10:11:39;;;;;;;1.88;0.28;;;;;;;11.97;100.00;96842.84;6165216;23;20068;-50
2021/12/28 10:14:42;;;;;;;0.73;0.50;;;;;;;11.96;100.00;96851.75;6187099;23;20028;-52
2021/12/28 10:17:49;;;;;;;2.97;1.05;;;;;;;11.96;100.00;96874.81;6138388;23;20517;-55
2021/12/28 10:20:56;;;;;;;0.50;0.20;;;;;;;11.94;100.00;96877.41;6141680;23;20036;-52
2021/12/28 10:24:00;;;;;;;2.50;0.43;;;;;;;11.96;100.00;96891.53;6144798;23;20480;-52
2021/12/28 10:27:15;;;;;;;1.15;0.75;;;;;;;11.89;100.00;96897.84;6178903;23;20023;-52
2021/12/28 10:30:38;;;;;;;0.63;0.60;;;;;;;11.97;100.00;96906.97;6230949;23;20031;-52
2021/12/28 10:33:41;;;;;;;1.10;0.73;;;;;;;12.07;100.00;96919.06;6214220;22;20047;-52
2021/12/28 10:36:45;;;;;;;1.00;0.45;;;;;;;12.17;100.00;96922.78;6152493;23;20027;-52
2021/12/28 10:39:56;;;;;;;4.53;1.10;;;;;;;12.25;100.00;96922.03;6169360;23;20047;-52
2021/12/28 10:43:02;;;;;;;0.57;0.53;;;;;;;12.26;100.00;96943.06;6201532;23;20027;-52
2021/12/28 10:46:10;;;;;;;0.30;0.30;;;;;;;12.29;100.00;96953.09;6185893;23;20032;-52
2021/12/28 10:49:14;;;;;;;4.07;0.52;;;;;;;12.26;100.00;96965.41;6168915;23;20024;-52
2021/12/28 10:52:28;;;;;;;0.82;0.60;;;;;;;12.27;100.00;96964.09;6195043;23;20408;-52
2021/12/28 10:55:32;;;;;;;0.55;0.52;;;;;;;12.28;100.00;96976.75;6167226;23;20027;-52
2021/12/28 10:58:41;;;;;;;0.63;0.38;;;;;;;12.25;100.00;96980.63;6173758;23;20027;-52
2021/12/28 11:01:45;;;;;;;0.90;0.90;;;;;;;12.29;100.00;97001.28;6198064;23;20025;-53
2021/12/28 11:04:48;;;;;;;0.28;0.20;;;;;;;12.32;100.00;97005.03;6197467;23;20377;-52
2021/12/28 11:07:56;;;;;;;0.10;0.10;;;;;;;12.30;100.00;97013.94;6210529;23;20031;-52
2021/12/28 11:11:04;;;;;;;0.10;0.10;;;;;;;12.32;100.00;97030.13;6194252;23;20066;-52
2021/12/28 11:14:16;;;;;;;2.40;0.10;;;;;;;12.31;100.00;97043.34;6192756;23;20079;-52
2021/12/28 11:17:30;;;;;;;0.50;0.30;;;;;;;12.39;100.00;97054.53;6234761;22;20023;-52
2021/12/28 11:20:33;;;;;;;0.40;0.20;;;;;;;12.46;100.00;97048.19;6229507;22;20052;-53
2021/12/28 11:23:37;;;;;;;0.28;0.20;;;;;;;12.48;100.00;97065.88;6245532;22;20027;-52
2021/12/28 11:26:42;;;;;;;2.08;0.65;;;;;;;12.42;100.00;97070.16;6243282;22;20031;-53
2021/12/28 11:29:46;;;;;;;3.80;0.43;;;;;;;12.38;100.00;97075.34;6249721;22;20454;-53
2021/12/28 11:33:08;;;;;;;5.00;0.90;;;;;;;12.37;100.00;97091.34;6265437;22;20026;-52
2021/12/28 11:36:12;;;;;;;2.72;0.52;;;;;;;12.41;100.00;97085.41;6229818;22;20035;-52
2021/12/28 11:39:19;;;;;;;1.20;0.38;;;;;;;12.35;100.00;97098.78;6209175;22;20048;-52
2021/12/28 11:42:23;;;;;;;1.45;0.70;;;;;;;12.30;100.00;97108.09;6192796;22;20042;-53
2021/12/28 11:45:27;;;;;;;1.33;0.35;;;;;;;12.28;100.00;97125.34;6256377;22;20031;-53
2021/12/28 11:48:31;;;;;;;0.65;0.60;;;;;;;12.24;100.00;97138.94;6261160;22;20026;-55
2021/12/28 11:51:36;;;;;;;1.27;0.57;;;;;;;12.31;100.00;97143.03;6230340;22;20031;-55
2021/12/28 11:54:44;;;;;;;0.50;0.35;;;;;;;12.31;100.00;97143.03;6263735;22;20356;-56
2021/12/28 11:57:52;;;;;;;4.57;1.33;;;;;;;12.34;100.00;97161.47;6248158;22;20031;-56
2021/12/28 12:00:55;;;;;;;2.00;1.10;;;;;;;12.33;100.00;97185.09;6197105;22;20035;-56
2021/12/28 12:03:59;;;;;;;0.10;0.10;;;;;;;12.40;100.00;97201.13;6152607;23;20048;-56
2021/12/28 12:07:05;;;;;;;0.28;0.20;;;;;;;12.39;100.00;97211.53;6158032;23;20028;-57
2021/12/28 12:10:18;;;;;;;0.80;0.50;;;;;;;12.27;100.00;97226.38;6167301;23;20536;-56
2021/12/28 12:13:27;;;;;;;0.30;0.30;;;;;;;12.27;100.00;97237.53;6193677;23;20031;-55
2021/12/28 12:16:30;;;;;;;6.07;0.60;;;;;;;12.22;100.00;97252.38;6186468;23;20027;-56
2021/12/28 12:19:48;;;;;;;0.85;0.45;;;;;;;12.21;100.00;97250.91;6194470;23;20353;-56
2021/12/28 12:22:53;;;;;;;0.55;0.52;;;;;;;12.22;100.00;97267.09;6148493;23;20031;-56
2021/12/28 12:26:03;;;;;;;0.20;0.20;;;;;;;12.21;100.00;97273.22;6171265;23;20035;-56
2021/12/28 12:29:20;;;;;;;0.20;0.20;;;;;;;12.14;100.00;97281.00;6174573;23;20073;-55
2021/12/28 12:33:09;;;;;;;0.63;0.60;;;;;;;12.24;100.00;97283.28;6166879;23;20027;-55
2021/12/28 12:36:30;;;;;;;0.55;0.25;;;;;;;12.26;100.00;97298.16;6212057;23;20035;-56
2021/12/28 12:39:38;;;;;;;2.33;0.63;;;;;;;12.22;100.00;97302.59;6209009;23;20789;-57
2021/12/28 12:42:41;;;;;;;0.50;0.38;;;;;;;12.27;100.00;97310.09;6194935;23;20088;-55
2021/12/28 12:45:50;;;;;;;0.20;0.20;;;;;;;12.24;100.00;97317.50;6149752;23;20032;-56
2021/12/28 12:48:54;;;;;;;0.38;0.10;;;;;;;12.27;100.00;97338.00;6142801;23;20047;-55
2021/12/28 12:52:12;;;;;;;0.20;0.20;;;;;;;12.31;100.00;97350.31;6157626;23;20065;-55
2021/12/28 12:55:33;;;;;;;0.45;0.30;;;;;;;12.29;100.00;97354.94;6209013;23;20357;-56
2021/12/28 12:58:40;;;;;;;0.15;0.15;;;;;;;12.33;100.00;97363.69;6154536;23;20049;-56
2021/12/28 13:01:44;;;;;;;1.55;0.22;;;;;;;12.40;100.00;97379.75;6109993;23;20032;-56
2021/12/28 13:04:50;;;;;;;0.75;0.50;;;;;;;12.40;100.00;97376.97;6126414;23;20037;-55
2021/12/28 13:07:53;;;;;;;0.10;0.00;;;;;;;12.29;100.00;97391.22;6163558;23;20488;-56
2021/12/28 13:10:57;;;;;;;0.28;0.28;;;;;;;12.29;100.00;97391.22;6114871;23;20028;-56
2021/12/28 13:14:02;;;;;;;0.20;0.20;;;;;;;12.30;100.00;97398.31;6139323;23;20027;-56
2021/12/28 13:17:14;;;;;;;1.00;0.20;;;;;;;12.29;100.00;97419.13;6170938;23;20042;-56
2021/12/28 13:20:18;;;;;;;0.75;0.60;;;;;;;12.34;100.00;97426.59;6142979;23;20032;-56
2021/12/28 13:23:21;;;;;;;0.45;0.40;;;;;;;12.43;100.00;97440.09;6153095;23;20085;-56
2021/12/28 13:26:24;;;;;;;0.20;0.20;;;;;;;12.46;100.00;97444.56;6176808;23;20330;-56
2021/12/28 13:29:33;;;;;;;0.73;0.30;;;;;;;12.55;100.00;97450.41;6181411;23;20016;-56
2021/12/28 13:32:39;;;;;;;0.73;0.30;;;;;;;12.62;100.00;97462.94;6181655;23;20024;-57
2021/12/28 13:35:44;;;;;;;0.10;0.10;;;;;;;12.61;100.00;97483.75;6179652;23;20477;-57
2021/12/28 13:38:47;;;;;;;0.20;0.20;;;;;;;12.67;100.00;97492.72;6178204;23;20028;-56
2021/12/28 13:41:52;;;;;;;1.00;0.55;;;;;;;12.65;100.00;97507.25;6140239;23;20330;-57
2021/12/28 13:44:56;;;;;;;0.10;0.03;;;;;;;12.57;100.00;97519.66;6177365;23;20036;-56
2021/12/28 13:48:02;;;;;;;0.90;0.15;;;;;;;12.32;100.00;97527.63;6160658;23;20032;-56
2021/12/28 13:51:07;;;;;;;5.15;1.58;;;;;;;12.33;100.00;97531.16;6176583;23;20017;-56
2021/12/28 13:54:11;;;;;;;0.65;0.38;;;;;;;12.35;100.00;97543.28;6174102;23;20044;-57
2021/12/28 13:57:15;;;;;;;0.45;0.40;;;;;;;12.45;100.00;97538.72;6193675;23;20075;-56
2021/12/28 14:00:23;;;;;;;0.65;0.35;;;;;;;12.32;100.00;97535.25;6190930;23;20032;-57
2021/12/28 14:03:27;;;;;;;0.40;0.15;;;;;;;12.16;100.00;97549.06;6193764;23;20031;-57
2021/12/28 14:06:34;;;;;;;0.22;0.20;;;;;;;12.16;100.00;97551.09;6146849;23;20532;-56
2021/12/28 14:09:38;;;;;;;1.25;0.85;;;;;;;12.10;100.00;97556.81;6145793;23;20068;-56
2021/12/28 14:12:41;;;;;;;0.20;0.20;;;;;;;12.21;100.00;97569.75;6191650;23;20028;-57
2021/12/28 14:16:03;;;;;;;0.40;0.15;;;;;;;12.27;100.00;97580.78;6209959;23;20047;-57
2021/12/28 14:19:15;;;;;;;0.20;0.17;;;;;;;12.30;100.00;97582.50;6207170;23;20036;-58
2021/12/28 14:22:20;;;;;;;0.47;0.20;;;;;;;12.36;100.00;97591.47;6206383;23;20357;-56
2021/12/28 14:25:23;;;;;;;0.47;0.47;;;;;;;12.39;100.00;97596.00;6206144;23;20028;-56
2021/12/28 14:28:27;;;;;;;0.30;0.20;;;;;;;12.37;100.00;97607.69;6190129;23;20035;-56
2021/12/28 14:31:40;;;;;;;0.20;0.20;;;;;;;12.41;100.00;97618.53;6190351;23;20031;-53
2021/12/28 14:34:46;;;;;;;1.23;0.43;;;;;;;12.43;100.00;97635.47;6207666;23;20663;-53